Hebron, CT (06248)

6:22 PM EDT on March 27, 2015 (GMT -0400)
At Skinner Lane | | Change Station
CLOSE
Current Station
Personal Weather Station
Location: Hebron, CT
Elevation: 640 ft
Nearby Weather Stations
Active Advisory: Special Statement

Elev 640 ft 41.68 °N, 72.37 °W | Updated 23 seconds ago

Overcast
Overcast
39.8 °F
Feels Like 40 °F
N
0.0
Wind Variable Wind from WNW
Gusts 0.0 mph

Today
High -- | Low -- °F
--% Chance of Precip.
Yesterday
High -- | Low -- °F
Precip. -- in
6:41 AM 7:09 PM
First Quarter, 56% visible
Pressure 29.73 in
Visibility 10.0 miles
Clouds Overcast 2800 ft
Windchill 40 °F
Dew Point 32 °F
Humidity 73%
Rainfall 0.29 in
Snow Depth Not available.
UV 0 out of 12
Pollen 4.50 out of 12
Air Quality Not available.
Flu Activity Not available.
METAR KIJD 272152Z AUTO 30003KT 10SM OVC028 06/01 A2973 RMK AO2 SLP068 T00610006

More Conditions Fewer Conditions

Pressure 29.73 in
Visibility 10.0 miles
Clouds Overcast 2800 ft
Windchill 40 °F
Dew Point 32 °F
Humidity 73%
Rainfall 0.29 in
Snow Depth Not available.
UV 0 out of 12
Pollen 4.50 out of 12
Air Quality Not available.
Flu Activity Not available.
METAR KIJD 272152Z AUTO 30003KT 10SM OVC028 06/01 A2973 RMK AO2 SLP068 T00610006

More Conditions Fewer Conditions

10-Day Weather Forecast

Almanac

Astronomy

Mar. 27, 2015 Rise Set
Actual Time
Civil Twilight
Nautical Twilight
Astronomical Twilight
Moon
Length of Visible Light
Length of Day
Tomorrow will be .
, % of the Moon is Illuminated

Today's Extremes

State Highs State Lows

Community

WunderPhotos

Upload Photos

1,808,847 photos uploaded!

WunderBlogs® & News

Nearby

Air Quality

  Air Quality AQ Index Pollutant
Not available.

Snow Depth

Station Depth Elevation

Earthquake Activity

City Distance Mag. Time & Date
Minimum magnitude displayed is 2.5.

Coastal Water Temperatures

Place Temperature

Stations

Nearby Weather Stations

Station Location Temp. Windchill Dew Point Humidity Wind Precip. Elev Updated Type
                   
Special Statement
Statement as of 4:45 PM EDT on March 27, 2015

... Accumulating snowfall expected late tonight into Saturday...

A low pressure passing well southeast of southern New England will
produce some snowfall within our region. The expected timing will
be late tonight into Saturday.

Travelers should be prepared for lower visibility at times...
along with the possibility of snow-covered roads.

Total snow accumulations of 1 to 3 inches are expected... with
locally higher amounts possible. Please see our winter weather
Page for more details at... weather.Gov/Boston/winter.


Belk